Time;durP1;ratioP1;P1;durP2;ratioP2;P2;SDS_P1;SDS_P2;PMS_P1;PMS_P2;Temp;Humidity;BMP_temperature;BMP_pressure;BME280_temperature;BME280_humidity;BME280_pressure;Samples;Min_cycle;Max_cycle;Signal;HPM_P1;HPM_P2
2022/01/19 00:01:03;;;;;;;;;;;;;;;1.33;100.00;99884.66;1627370;86;24973;-83
2022/01/19 00:03:29;;;;;;;;;;;;;;;1.35;100.00;99884.66;1636719;86;21405;-83
2022/01/19 00:05:55;;;;;;;;;;;;;;;1.36;100.00;99882.50;1636869;86;26222;-83
2022/01/19 00:08:22;;;;;;;;;;;;;;;1.35;100.00;99888.52;1636274;87;24473;-83
2022/01/19 00:10:54;;;;;;;;;;;;;;;1.30;100.00;99883.84;1636199;87;20312;-83
2022/01/19 00:13:20;;;;;;;;;;;;;;;1.29;100.00;99886.00;1635558;87;24702;-83
2022/01/19 00:15:46;;;;;;;;;;;;;;;1.26;100.00;99886.87;1636794;87;21895;-83
2022/01/19 00:18:13;;;;;;;;;;;;;;;1.24;100.00;99896.36;1636895;86;25968;-83
2022/01/19 00:20:39;;;;;;;;;;;;;;;1.25;100.00;99891.16;1636748;86;24445;-82
2022/01/19 00:23:05;;;;;;;;;;;;;;;1.26;100.00;99887.72;1636510;87;20336;-82
2022/01/19 00:25:32;;;;;;;;;;;;;;;1.25;100.00;99887.77;1636804;87;24765;-82
2022/01/19 00:27:58;;;;;;;;;;;;;;;1.22;100.00;99886.48;1636351;87;22039;-82
2022/01/19 00:30:26;;;;;;;;;;;;;;;1.21;100.00;99877.89;1632681;87;26050;-83
2022/01/19 00:32:52;;;;;;;;;;;;;;;1.20;100.00;99875.34;1631710;88;24465;-84
2022/01/19 00:35:18;;;;;;;;;;;;;;;1.17;100.00;99877.50;1631295;86;20227;-83
2022/01/19 00:37:46;;;;;;;;;;;;;;;1.14;100.00;99875.40;1631423;87;24817;-83
2022/01/19 00:40:14;;;;;;;;;;;;;;;1.15;100.00;99884.39;1631038;88;21986;-83
2022/01/19 00:42:41;;;;;;;;;;;;;;;1.13;100.00;99886.14;1631564;86;26036;-83
2022/01/19 00:45:08;;;;;;;;;;;;;;;1.10;100.00;99893.03;1613602;87;24397;-83
2022/01/19 00:47:34;;;;;;;;;;;;;;;1.13;100.00;99891.73;1612625;88;20523;-83
2022/01/19 00:50:01;;;;;;;;;;;;;;;1.15;100.00;99888.69;1631660;86;24775;-84
2022/01/19 00:52:27;;;;;;;;;;;;;;;1.14;100.00;99890.87;1631587;86;21958;-83
2022/01/19 00:54:53;;;;;;;;;;;;;;;1.14;100.00;99889.15;1631202;87;26112;-83
2022/01/19 00:57:19;;;;;;;;;;;;;;;1.19;100.00;99888.67;1631449;86;24607;-83
2022/01/19 00:59:45;;;;;;;;;;;;;;;1.19;100.00;99887.81;1631827;88;21480;-83
2022/01/19 01:02:11;;;;;;;;;;;;;;;1.18;100.00;99889.97;1631627;87;24744;-83
2022/01/19 01:04:37;;;;;;;;;;;;;;;1.17;100.00;99891.69;1631501;88;21934;-83
2022/01/19 01:07:03;;;;;;;;;;;;;;;1.19;100.00;99887.38;1631572;86;26004;-83
2022/01/19 01:09:29;;;;;;;;;;;;;;;1.20;100.00;99880.50;1631534;88;24642;-83
2022/01/19 01:12:11;;;;;;;;;;;;;;;1.21;100.00;99871.87;1631742;87;20294;-83
2022/01/19 01:20:01;;;;;;;;;;;;;;;1.21;100.00;99849.52;1631148;88;26087;-83
2022/01/19 01:22:33;;;;;;;;;;;;;;;1.26;100.00;99845.17;1631790;87;24579;-83
2022/01/19 01:25:03;;;;;;;;;;;;;;;1.27;100.00;99848.61;1613104;88;20219;-83
2022/01/19 01:27:29;;;;;;;;;;;;;;;1.27;100.00;99838.30;1631884;87;24822;-83
2022/01/19 01:29:55;;;;;;;;;;;;;;;1.32;100.00;99826.64;1631434;86;22066;-83
2022/01/19 01:32:21;;;;;;;;;;;;;;;1.30;100.00;99816.80;1631305;87;26075;-83
2022/01/19 01:34:47;;;;;;;;;;;;;;;1.31;100.00;99809.48;1631900;87;24552;-83
2022/01/19 01:37:17;;;;;;;;;;;;;;;1.33;100.00;99798.27;1631612;88;20244;-83
2022/01/19 01:39:45;;;;;;;;;;;;;;;1.29;100.00;99786.29;1620498;88;24663;-83
2022/01/19 01:42:12;;;;;;;;;;;;;;;1.24;100.00;99794.52;1630596;88;22062;-82
2022/01/19 01:44:40;;;;;;;;;;;;;;;1.18;100.00;99791.99;1631662;86;26244;-82
2022/01/19 01:47:06;;;;;;;;;;;;;;;1.16;100.00;99785.98;1622676;87;24466;-83
2022/01/19 01:53:26;;;;;;;;;;;;;;;1.13;100.00;99773.14;1595502;89;20446;-82
2022/01/19 01:54:59;;;;;;;;;;;;;;;1.16;100.00;99748.60;1625979;88;21961;-82
2022/01/19 01:57:25;;;;;;;;;;;;;;;1.18;100.00;99750.31;1626745;88;26046;-82
2022/01/19 01:59:57;;;;;;;;;;;;;;;1.18;100.00;99748.16;1626762;87;24406;-82
2022/01/19 02:02:23;;;;;;;;;;;;;;;1.18;100.00;99746.88;1626898;87;20231;-83
2022/01/19 02:04:49;;;;;;;;;;;;;;;1.24;100.00;99748.95;1626131;88;24796;-83
2022/01/19 02:09:50;;;;;;;;;;;;;;;1.26;100.00;99744.62;1626768;88;26024;-83
2022/01/19 02:23:27;;;;;;;;;;;;;;;1.27;100.00;99710.66;1634593;86;26100;-83
2022/01/19 02:25:50;;;;;;;;;;;;;;;1.28;100.00;99705.07;1618765;88;24459;-84
2022/01/19 02:42:07;;;;;;;;;;;;;;;1.05;100.00;99710.48;1637967;85;20336;-83
2022/01/19 02:46:36;;;;;;;;;;;;;;;1.04;100.00;99702.33;1614796;87;25503;-83
2022/01/19 02:49:45;;;;;;;;;;;;;;;1.10;100.00;99697.97;1612798;88;26144;-83
2022/01/19 02:52:12;;;;;;;;;;;;;;;1.05;100.00;99692.02;1612891;87;24438;-83
2022/01/19 02:54:39;;;;;;;;;;;;;;;0.97;100.00;99688.69;1611453;88;20209;-83
2022/01/19 02:57:08;;;;;;;;;;;;;;;0.98;100.00;99695.55;1587251;90;24727;-83
2022/01/19 03:00:02;;;;;;;;;;;;;;;1.04;100.00;99695.45;1624568;86;22824;-83
2022/01/19 03:10:21;;;;;;;;;;;;;;;1.30;100.00;99680.98;1590867;88;24910;-84
2022/01/19 03:12:47;;;;;;;;;;;;;;;1.35;100.00;99677.05;1594823;87;22230;-83
2022/01/19 03:15:13;;;;;;;;;;;;;;;1.34;100.00;99670.19;1634516;86;26051;-83
2022/01/19 03:17:40;;;;;;;;;;;;;;;1.33;100.00;99674.92;1623944;86;24449;-83
2022/01/19 03:20:07;;;;;;;;;;;;;;;1.28;100.00;99667.69;1621622;86;20535;-83
2022/01/19 03:22:46;;;;;;;;;;;;;;;1.24;100.00;99663.87;1633729;86;24828;-84
2022/01/19 03:25:12;;;;;;;;;;;;;;;1.24;100.00;99665.16;1636541;86;21994;-84
2022/01/19 03:27:40;;;;;;;;;;;;;;;1.22;100.00;99663.02;1613612;88;26948;-83
2022/01/19 03:30:07;;;;;;;;;;;;;;;1.18;100.00;99663.95;1592818;88;24599;-82
2022/01/19 03:32:33;;;;;;;;;;;;;;;1.08;100.00;99662.36;1618285;88;20612;-83
2022/01/19 03:34:59;;;;;;;;;;;;;;;1.02;100.00;99659.84;1613341;88;24837;-83
2022/01/19 03:37:28;;;;;;;;;;;;;;;1.01;100.00;99655.56;1637335;86;22609;-83
2022/01/19 03:39:54;;;;;;;;;;;;;;;0.98;100.00;99649.59;1636246;86;26003;-83
2022/01/19 03:42:20;;;;;;;;;;;;;;;0.93;100.00;99649.63;1641692;87;24398;-83
2022/01/19 03:44:47;;;;;;;;;;;;;;;0.84;100.00;99641.58;1640042;86;20486;-83
2022/01/19 03:47:13;;;;;;;;;;;;;;;0.78;100.00;99642.08;1632531;86;24706;-83
2022/01/19 03:49:39;;;;;;;;;;;;;;;0.70;100.00;99637.03;1639646;86;22111;-84
2022/01/19 03:52:06;;;;;;;;;;;;;;;0.70;100.00;99640.89;1628145;86;26024;-83
2022/01/19 03:54:33;;;;;;;;;;;;;;;0.70;100.00;99634.89;1630831;85;23758;-84
2022/01/19 03:57:02;;;;;;;;;;;;;;;0.66;100.00;99634.48;1632995;86;20313;-83
2022/01/19 03:59:28;;;;;;;;;;;;;;;0.65;100.00;99630.22;1628602;86;26294;-83
2022/01/19 04:01:54;;;;;;;;;;;;;;;0.63;100.00;99631.95;1629984;86;21940;-83
2022/01/19 04:09:36;;;;;;;;;;;;;;;0.62;100.00;99613.06;1641637;86;20253;-83
2022/01/19 04:12:03;;;;;;;;;;;;;;;0.57;100.00;99609.69;1608367;87;25656;-83
2022/01/19 04:14:29;;;;;;;;;;;;;;;0.53;100.00;99609.74;1613729;88;21985;-82
2022/01/19 04:16:56;;;;;;;;;;;;;;;0.46;100.00;99609.38;1640351;86;26086;-83
2022/01/19 04:21:51;;;;;;;;;;;;;;;0.35;99.98;99602.63;1641478;87;20257;-84
2022/01/19 04:24:18;;;;;;;;;;;;;;;0.36;99.96;99604.33;1643104;86;24803;-84
2022/01/19 04:27:31;;;;;;;;;;;;;;;0.32;99.87;99605.67;1629638;85;22083;-84
2022/01/19 04:29:26;;;;;;;;;;;;;;;0.23;99.69;99605.74;1644471;86;26826;-83
2022/01/19 04:32:01;;;;;;;;;;;;;;;0.11;99.50;99593.02;1606496;87;24480;-83
2022/01/19 04:34:26;;;;;;;;;;;;;;;0.00;99.34;99587.97;1601876;88;20165;-83
2022/01/19 04:45:21;;;;;;;;;;;;;;;-0.15;99.17;99573.93;1588710;89;24229;-83
2022/01/19 05:04:10;;;;;;;;;;;;;;;-0.14;99.49;99545.63;1602125;88;24805;-83
2022/01/19 05:06:39;;;;;;;;;;;;;;;-0.12;99.56;99536.19;1602636;89;22145;-82
2022/01/19 05:14:38;;;;;;;;;;;;;;;-0.10;99.61;99533.58;1604361;89;20292;-82
2022/01/19 05:17:04;;;;;;;;;;;;;;;-0.10;99.61;99531.00;1608125;89;24811;-82
2022/01/19 05:19:30;;;;;;;;;;;;;;;-0.10;99.56;99534.86;1603606;88;21983;-83
2022/01/19 05:21:56;;;;;;;;;;;;;;;-0.14;99.49;99534.48;1605277;89;25942;-83
2022/01/19 05:24:22;;;;;;;;;;;;;;;-0.17;99.44;99531.95;1602161;89;24390;-82
2022/01/19 05:26:50;;;;;;;;;;;;;;;-0.16;99.46;99522.91;1606393;88;20223;-82
2022/01/19 05:29:17;;;;;;;;;;;;;;;-0.27;99.35;99518.30;1602199;89;24368;-82
2022/01/19 05:31:43;;;;;;;;;;;;;;;-0.32;99.27;99511.06;1619903;87;22117;-82
2022/01/19 05:34:10;;;;;;;;;;;;;;;-0.32;99.31;99508.92;1626370;87;26073;-82
2022/01/19 05:36:36;;;;;;;;;;;;;;;-0.27;99.36;99506.73;1631002;87;24443;-82
2022/01/19 05:39:05;;;;;;;;;;;;;;;-0.38;99.25;99494.40;1633293;87;20255;-82
2022/01/19 05:41:33;;;;;;;;;;;;;;;-0.36;99.26;99492.67;1604539;88;24749;-83
2022/01/19 05:43:59;;;;;;;;;;;;;;;-0.32;99.29;99491.77;1639416;86;22033;-82
2022/01/19 05:46:25;;;;;;;;;;;;;;;-0.28;99.32;99500.33;1629348;87;25998;-83
2022/01/19 05:48:51;;;;;;;;;;;;;;;-0.36;99.25;99499.53;1603419;88;25198;-82
2022/01/19 05:51:20;;;;;;;;;;;;;;;-0.36;99.21;99498.25;1609552;88;20300;-82
2022/01/19 05:53:46;;;;;;;;;;;;;;;-0.35;99.21;99490.53;1631758;87;24755;-82
2022/01/19 05:56:13;;;;;;;;;;;;;;;-0.37;99.17;99491.39;1634451;87;21343;-83
2022/01/19 05:58:39;;;;;;;;;;;;;;;-0.36;99.15;99492.67;1627573;88;26150;-83
2022/01/19 06:01:05;;;;;;;;;;;;;;;-0.39;99.13;99490.58;1627771;88;24404;-82
2022/01/19 06:03:31;;;;;;;;;;;;;;;-0.37;99.17;99488.39;1630640;87;20220;-82
2022/01/19 06:05:57;;;;;;;;;;;;;;;-0.38;99.18;99487.97;1602918;88;24747;-83
2022/01/19 06:10:55;;;;;;;;;;;;;;;-0.45;99.09;99487.20;1621937;88;26252;-83
2022/01/19 06:13:19;;;;;;;;;;;;;;;-0.53;98.95;99488.11;1621151;88;24454;-83
2022/01/19 06:15:45;;;;;;;;;;;;;;;-0.61;98.79;99488.20;1630949;86;20366;-83
2022/01/19 06:18:12;;;;;;;;;;;;;;;-0.65;98.71;99492.92;1634966;87;24830;-83
2022/01/19 06:20:38;;;;;;;;;;;;;;;-0.65;98.67;99491.63;1627325;88;21927;-83
2022/01/19 06:23:05;;;;;;;;;;;;;;;-0.66;98.65;99486.09;1627930;88;26031;-83
2022/01/19 06:25:31;;;;;;;;;;;;;;;-0.69;98.63;99490.39;1627805;88;24499;-83
2022/01/19 06:27:57;;;;;;;;;;;;;;;-0.73;98.60;99492.14;1627941;88;20256;-83
2022/01/19 06:30:24;;;;;;;;;;;;;;;-0.78;98.51;99499.47;1628162;88;24739;-83
2022/01/19 06:32:51;;;;;;;;;;;;;;;-0.80;98.46;99498.61;1632055;87;22088;-83
2022/01/19 06:35:21;;;;;;;;;;;;;;;-0.83;98.45;99486.66;1633002;88;21106;-83
2022/01/19 06:37:47;;;;;;;;;;;;;;;-0.84;98.45;99481.09;1632396;88;24510;-83
2022/01/19 06:40:14;;;;;;;;;;;;;;;-0.87;98.41;99472.09;1632847;87;20258;-83
2022/01/19 06:42:41;;;;;;;;;;;;;;;-0.95;98.38;99471.32;1632921;87;24744;-83
2022/01/19 06:45:08;;;;;;;;;;;;;;;-1.02;98.29;99478.21;1632904;87;22015;-82
2022/01/19 06:47:34;;;;;;;;;;;;;;;-1.08;98.22;99483.38;1632607;88;26136;-82
2022/01/19 06:50:00;;;;;;;;;;;;;;;-1.10;98.17;99474.86;1632661;88;24467;-82
2022/01/19 06:52:26;;;;;;;;;;;;;;;-1.10;98.17;99477.86;1638871;86;20370;-82
2022/01/19 06:54:52;;;;;;;;;;;;;;;-1.16;98.15;99472.33;1641837;87;24883;-82
2022/01/19 06:57:18;;;;;;;;;;;;;;;-1.14;98.18;99474.44;1620199;88;21969;-83
2022/01/19 06:59:45;;;;;;;;;;;;;;;-1.13;98.22;99473.58;1640667;86;26053;-83
2022/01/19 07:02:11;;;;;;;;;;;;;;;-1.11;98.30;99468.02;1611079;88;24549;-83
2022/01/19 07:04:38;;;;;;;;;;;;;;;-1.10;98.37;99466.30;1614133;88;20823;-83
2022/01/19 07:07:04;;;;;;;;;;;;;;;-1.09;98.42;99462.88;1640633;86;24740;-82
2022/01/19 07:09:30;;;;;;;;;;;;;;;-1.12;98.42;99461.16;1639288;85;22096;-82
2022/01/19 07:11:57;;;;;;;;;;;;;;;-1.16;98.41;99459.91;1629093;86;25989;-83
2022/01/19 07:14:23;;;;;;;;;;;;;;;-1.19;98.40;99455.63;1630076;86;24389;-82
2022/01/19 07:16:49;;;;;;;;;;;;;;;-1.21;98.40;99459.09;1639833;86;20295;-83
2022/01/19 07:19:15;;;;;;;;;;;;;;;-1.21;98.45;99461.66;1640814;86;20767;-82
2022/01/19 07:21:41;;;;;;;;;;;;;;;-1.23;98.44;99462.09;1610049;88;22055;-82
2022/01/19 07:24:07;;;;;;;;;;;;;;;-1.28;98.43;99462.13;1612665;88;26068;-82
2022/01/19 07:26:33;;;;;;;;;;;;;;;-1.30;98.49;99459.98;1640447;86;24511;-82
2022/01/19 07:28:59;;;;;;;;;;;;;;;-1.27;98.59;99446.72;1639153;86;20256;-82
2022/01/19 07:31:25;;;;;;;;;;;;;;;-1.26;98.64;99429.59;1646887;86;20222;-83
2022/01/19 07:33:57;;;;;;;;;;;;;;;-1.27;98.72;99427.88;1619247;86;20239;-82
2022/01/19 07:36:23;;;;;;;;;;;;;;;-1.25;98.81;99432.56;1635892;87;26048;-83
2022/01/19 07:38:49;;;;;;;;;;;;;;;-1.25;98.89;99432.56;1636070;86;24495;-83
2022/01/19 07:41:15;;;;;;;;;;;;;;;-1.27;98.97;99433.02;1636022;86;20355;-82
2022/01/19 07:43:41;;;;;;;;;;;;;;;-1.27;99.05;99429.17;1612324;87;24671;-82
2022/01/19 07:46:07;;;;;;;;;;;;;;;-1.25;99.15;99433.02;1636195;87;22222;-83
2022/01/19 07:48:33;;;;;;;;;;;;;;;-1.22;99.29;99432.98;1636311;87;25954;-83
2022/01/19 07:51:00;;;;;;;;;;;;;;;-1.20;99.42;99426.95;1634207;86;25822;-84
2022/01/19 07:53:26;;;;;;;;;;;;;;;-1.15;99.59;99419.25;1635840;87;20608;-83
2022/01/19 07:55:53;;;;;;;;;;;;;;;-1.11;99.75;99411.50;1635822;86;24829;-83
2022/01/19 07:58:19;;;;;;;;;;;;;;;-1.09;99.92;99402.05;1621869;86;22126;-84
2022/01/19 08:00:46;;;;;;;;;;;;;;;-1.06;100.00;99398.63;1636014;87;26300;-83
2022/01/19 08:03:12;;;;;;;;;;;;;;;-1.06;100.00;99400.77;1635799;87;20301;-83
2022/01/19 08:05:38;;;;;;;;;;;;;;;-1.03;100.00;99399.87;1635827;87;20574;-83
2022/01/19 08:08:04;;;;;;;;;;;;;;;-1.00;100.00;99398.58;1636152;87;24785;-83
2022/01/19 08:10:31;;;;;;;;;;;;;;;-1.01;100.00;99399.44;1619769;87;22055;-83
2022/01/19 08:13:01;;;;;;;;;;;;;;;-0.99;100.00;99405.42;1635622;86;26160;-82
2022/01/19 08:15:25;;;;;;;;;;;;;;;-0.97;100.00;99406.24;1635342;87;24696;-83
2022/01/19 08:17:51;;;;;;;;;;;;;;;-0.91;100.00;99397.20;1633944;87;20216;-83
2022/01/19 08:20:18;;;;;;;;;;;;;;;-0.83;100.00;99388.16;1623992;86;24748;-83
2022/01/19 08:22:44;;;;;;;;;;;;;;;-0.78;100.00;99393.67;1594615;89;21948;-83
2022/01/19 08:25:10;;;;;;;;;;;;;;;-0.75;100.00;99388.49;1622077;86;25984;-83
2022/01/19 08:27:37;;;;;;;;;;;;;;;-0.71;100.00;99386.30;1622319;86;24333;-83
2022/01/19 08:30:04;;;;;;;;;;;;;;;-0.68;100.00;99381.16;1618041;87;20563;-82
2022/01/19 08:32:31;;;;;;;;;;;;;;;-0.64;100.00;99372.54;1618280;87;24907;-83
2022/01/19 08:34:57;;;;;;;;;;;;;;;-0.58;100.00;99364.77;1622694;87;21975;-82
2022/01/19 08:37:23;;;;;;;;;;;;;;;-0.56;100.00;99356.62;1624026;87;25996;-82
2022/01/19 08:39:49;;;;;;;;;;;;;;;-0.53;100.00;99351.86;1619369;87;24415;-82
2022/01/19 08:42:15;;;;;;;;;;;;;;;-0.49;100.00;99354.81;1619159;87;20356;-82
2022/01/19 08:44:43;;;;;;;;;;;;;;;-0.46;100.00;99354.36;1621363;87;25405;-82
2022/01/19 08:47:11;;;;;;;;;;;;;;;-0.38;100.00;99348.30;1620287;87;21988;-82
2022/01/19 08:49:37;;;;;;;;;;;;;;;-0.34;100.00;99348.66;1627081;87;25995;-83
2022/01/19 08:52:04;;;;;;;;;;;;;;;-0.31;100.00;99347.33;1619686;87;24477;-82
2022/01/19 08:54:31;;;;;;;;;;;;;;;-0.29;100.00;99337.89;1628047;87;20284;-82
2022/01/19 08:56:57;;;;;;;;;;;;;;;-0.28;100.00;99328.02;1623451;87;24813;-82
2022/01/19 08:59:23;;;;;;;;;;;;;;;-0.23;100.00;99330.10;1621517;87;22296;-82
2022/01/19 09:01:49;;;;;;;;;;;;;;;-0.22;100.00;99329.23;1621796;87;26053;-82
2022/01/19 09:04:15;;;;;;;;;;;;;;;-0.21;100.00;99333.48;1623618;87;24494;-82
2022/01/19 09:06:41;;;;;;;;;;;;;;;-0.19;100.00;99329.19;1623175;87;20229;-82
2022/01/19 09:09:07;;;;;;;;;;;;;;;-0.16;100.00;99326.56;1619792;87;20299;-82
2022/01/19 09:11:33;;;;;;;;;;;;;;;-0.13;100.00;99319.67;1624157;87;20875;-82
2022/01/19 09:14:01;;;;;;;;;;;;;;;-0.06;100.00;99317.88;1621906;87;26156;-82
2022/01/19 09:16:30;;;;;;;;;;;;;;;0.00;100.00;99314.77;1629721;87;24109;-82
2022/01/19 09:18:56;;;;;;;;;;;;;;;0.04;100.00;99314.74;1623928;87;20282;-82
2022/01/19 09:21:22;;;;;;;;;;;;;;;0.05;100.00;99304.88;1621893;87;24829;-82
2022/01/19 09:23:48;;;;;;;;;;;;;;;0.08;100.00;99295.38;1629097;87;21970;-82
2022/01/19 09:26:14;;;;;;;;;;;;;;;0.13;100.00;99284.58;1601981;88;25750;-82
2022/01/19 09:28:40;;;;;;;;;;;;;;;0.21;100.00;99294.34;1597037;88;24497;-82
2022/01/19 09:31:11;;;;;;;;;;;;;;;0.24;100.00;99288.28;1615392;86;20515;-82
2022/01/19 09:33:34;;;;;;;;;;;;;;;0.27;100.00;99283.11;1622517;86;24982;-83
2022/01/19 09:38:29;;;;;;;;;;;;;;;0.39;100.00;99282.89;1630148;87;26648;-82
2022/01/19 09:40:56;;;;;;;;;;;;;;;0.46;100.00;99288.37;1628064;87;24632;-83
2022/01/19 09:43:22;;;;;;;;;;;;;;;0.52;100.00;99290.00;1627504;87;20472;-83
2022/01/19 09:45:52;;;;;;;;;;;;;;;0.55;100.00;99283.50;1626774;87;24734;-83
2022/01/19 09:48:18;;;;;;;;;;;;;;;0.57;100.00;99285.19;1627218;86;21982;-83
2022/01/19 09:50:45;;;;;;;;;;;;;;;0.63;100.00;99273.94;1628614;87;26653;-82
2022/01/19 09:53:16;;;;;;;;;;;;;;;0.65;100.00;99270.48;1626992;87;24489;-83
2022/01/19 09:55:40;;;;;;;;;;;;;;;0.67;100.00;99267.41;1616284;88;20403;-83
2022/01/19 09:58:07;;;;;;;;;;;;;;;0.73;100.00;99266.46;1619986;88;24993;-82
2022/01/19 10:00:34;;;;;;;;;;;;;;;0.77;100.00;99265.52;1621886;88;22166;-82
2022/01/19 10:03:14;;;;;;;;;;;;;;;0.81;100.00;99264.19;1615263;88;26069;-82
2022/01/19 10:05:57;;;;;;;;;;;;;;;0.90;100.00;99259.73;1631976;86;25265;-82
2022/01/19 10:08:27;;;;;;;;;;;;;;;0.97;100.00;99252.31;1612832;88;20254;-82
2022/01/19 10:11:13;;;;;;;;;;;;;;;1.05;100.00;99240.97;1634243;86;24455;-83
2022/01/19 10:19:17;;;;;;;;;;;;;;;1.22;100.00;99218.30;1629066;87;24454;-82
2022/01/19 10:21:59;;;;;;;;;;;;;;;1.30;100.00;99214.29;1632112;87;20225;-82
2022/01/19 10:24:39;;;;;;;;;;;;;;;1.36;100.00;99210.73;1598760;86;24766;-83
2022/01/19 10:27:23;;;;;;;;;;;;;;;1.37;100.00;99205.53;1633953;87;22197;-83
2022/01/19 10:29:51;;;;;;;;;;;;;;;1.40;100.00;99195.16;1631874;87;26890;-83
2022/01/19 10:32:19;;;;;;;;;;;;;;;1.44;100.00;99186.91;1598278;88;24767;-83
2022/01/19 10:34:45;;;;;;;;;;;;;;;1.44;100.00;99181.76;1604654;88;20186;-83
2022/01/19 10:37:11;;;;;;;;;;;;;;;1.48;100.00;99174.35;1606126;88;25057;-83
2022/01/19 10:39:39;;;;;;;;;;;;;;;1.50;100.00;99166.16;1605585;88;22037;-83
2022/01/19 10:42:07;;;;;;;;;;;;;;;1.51;100.00;99163.55;1609802;89;26088;-83
2022/01/19 10:44:35;;;;;;;;;;;;;;;1.55;100.00;99160.45;1609975;89;24567;-83
2022/01/19 10:47:01;;;;;;;;;;;;;;;1.61;100.00;99152.14;1603365;88;20260;-83
2022/01/19 10:49:27;;;;;;;;;;;;;;;1.66;100.00;99149.02;1614100;87;24745;-83
2022/01/19 10:51:58;;;;;;;;;;;;;;;1.74;100.00;99142.84;1603396;88;20238;-83
2022/01/19 10:54:25;;;;;;;;;;;;;;;1.81;100.00;99132.77;1602462;88;26083;-83
2022/01/19 10:56:54;;;;;;;;;;;;;;;1.86;100.00;99134.79;1634314;86;24607;-83
2022/01/19 10:59:24;;;;;;;;;;;;;;;1.88;100.00;99118.40;1634201;86;20373;-83
2022/01/19 11:02:00;;;;;;;;;;;;;;;1.89;100.00;99120.10;1609314;86;24817;-83
2022/01/19 11:04:34;;;;;;;;;;;;;;;1.96;100.00;99115.65;1602514;88;22162;-84
2022/01/19 11:07:02;;;;;;;;;;;;;;;2.00;100.00;99112.95;1634923;86;26005;-84
2022/01/19 11:09:29;;;;;;;;;;;;;;;2.06;100.00;99106.78;1621796;87;24350;-83
2022/01/19 11:11:57;;;;;;;;;;;;;;;2.08;100.00;99108.42;1634255;87;20432;-82
2022/01/19 11:14:26;;;;;;;;;;;;;;;2.15;100.00;99110.86;1634479;86;24840;-82
2022/01/19 11:16:52;;;;;;;;;;;;;;;2.20;100.00;99095.66;1634719;86;21961;-83
2022/01/19 11:19:19;;;;;;;;;;;;;;;2.24;100.00;99092.54;1610078;89;26065;-83
2022/01/19 11:21:53;;;;;;;;;;;;;;;2.28;100.00;99091.59;1585865;90;24553;-81
2022/01/19 11:24:24;;;;;;;;;;;;;;;2.32;100.00;99082.88;1609640;87;20231;-83
2022/01/19 11:26:52;;;;;;;;;;;;;;;2.36;100.00;99070.27;1608615;89;24775;-82
2022/01/19 11:29:20;;;;;;;;;;;;;;;2.41;100.00;99068.41;1609488;87;22730;-83
2022/01/19 11:31:47;;;;;;;;;;;;;;;2.45;100.00;99057.13;1592480;89;25868;-82
2022/01/19 11:34:13;;;;;;;;;;;;;;;2.49;100.00;99045.38;1601174;88;24489;-82
2022/01/19 11:36:43;;;;;;;;;;;;;;;2.51;100.00;99031.11;1598994;89;20887;-82
2022/01/19 11:39:11;;;;;;;;;;;;;;;2.51;100.00;99024.20;1582509;89;24827;-83
2022/01/19 11:41:45;;;;;;;;;;;;;;;2.52;100.00;99015.57;1598548;89;23021;-83
2022/01/19 11:44:16;;;;;;;;;;;;;;;2.56;99.94;99012.47;1598782;89;25746;-83
2022/01/19 11:46:44;;;;;;;;;;;;;;;2.56;99.81;99011.63;1598660;89;24646;-83
2022/01/19 11:49:12;;;;;;;;;;;;;;;2.60;99.66;99008.91;1598537;89;20324;-83
2022/01/19 11:51:43;;;;;;;;;;;;;;;2.65;99.52;98995.41;1595187;89;24864;-83
2022/01/19 11:54:11;;;;;;;;;;;;;;;2.70;99.40;98982.34;1581829;89;22094;-83
2022/01/19 11:56:48;;;;;;;;;;;;;;;2.75;99.29;98974.86;1598663;88;25983;-83
2022/01/19 11:59:14;;;;;;;;;;;;;;;2.80;99.12;98967.81;1595748;89;24540;-83
2022/01/19 12:01:40;;;;;;;;;;;;;;;2.85;98.95;98969.81;1582454;89;20490;-83
2022/01/19 12:04:14;;;;;;;;;;;;;;;2.90;98.85;98964.05;1574951;91;24721;-83
2022/01/19 12:06:42;;;;;;;;;;;;;;;2.96;98.71;98963.02;1598307;89;21944;-83
2022/01/19 12:09:11;;;;;;;;;;;;;;;2.97;98.52;98950.50;1570853;91;26816;-83
2022/01/19 12:11:42;;;;;;;;;;;;;;;3.02;98.39;98944.73;1568912;91;26135;-83
2022/01/19 12:14:12;;;;;;;;;;;;;;;3.08;98.30;98940.67;1591339;88;20287;-84
2022/01/19 12:19:13;;;;;;;;;;;;;;;3.19;98.03;98927.39;1590791;89;21956;-84
2022/01/19 12:21:41;;;;;;;;;;;;;;;3.20;97.86;98930.38;1597698;89;26175;-83
2022/01/19 12:24:14;;;;;;;;;;;;;;;3.22;97.65;98923.41;1598701;89;24544;-83
2022/01/19 12:26:45;;;;;;;;;;;;;;;3.21;97.41;98923.88;1581541;89;20333;-83
2022/01/19 12:29:13;;;;;;;;;;;;;;;3.25;97.18;98919.00;1579589;89;24846;-83
2022/01/19 12:31:39;;;;;;;;;;;;;;;3.26;96.95;98914.67;1596186;89;22007;-83
2022/01/19 12:34:10;;;;;;;;;;;;;;;3.27;96.70;98908.61;1599640;88;26043;-83
2022/01/19 12:36:56;;;;;;;;;;;;;;;3.30;96.54;98899.44;1611841;87;24658;-83
2022/01/19 12:39:26;;;;;;;;;;;;;;;3.29;96.28;98896.45;1621436;88;20547;-83
2022/01/19 12:41:55;;;;;;;;;;;;;;;3.28;95.98;98894.76;1621959;87;25637;-83
2022/01/19 12:44:39;;;;;;;;;;;;;;;3.28;95.73;98891.72;1592184;89;22126;-83
2022/01/19 12:47:07;;;;;;;;;;;;;;;3.31;95.53;98882.59;1622802;88;26838;-83
2022/01/19 12:49:33;;;;;;;;;;;;;;;3.34;95.30;98872.13;1618763;87;25221;-84
2022/01/19 12:52:00;;;;;;;;;;;;;;;3.35;95.11;98865.21;1595017;88;20518;-84
2022/01/19 12:54:29;;;;;;;;;;;;;;;3.38;94.89;98863.36;1625084;85;25555;-84
2022/01/19 12:57:05;;;;;;;;;;;;;;;3.41;94.73;98849.93;1625198;88;21960;-83
2022/01/19 12:59:29;;;;;;;;;;;;;;;3.44;94.55;98844.67;1624279;88;25999;-83
2022/01/19 13:01:56;;;;;;;;;;;;;;;3.46;94.31;98837.67;1617752;87;24447;-83
2022/01/19 13:04:29;;;;;;;;;;;;;;;3.49;94.11;98837.59;1623918;86;20506;-83
2022/01/19 13:06:57;;;;;;;;;;;;;;;3.54;94.00;98834.39;1634461;87;24522;-83
2022/01/19 13:09:34;;;;;;;;;;;;;;;3.54;93.77;98827.92;1635926;86;21993;-83
2022/01/19 13:11:54;;;;;;;;;;;;;;;3.58;93.59;98820.44;1633618;87;26269;-83
2022/01/19 13:14:19;;;;;;;;;;;;;;;3.61;93.48;98813.40;1635852;87;24439;-83
2022/01/19 13:16:46;;;;;;;;;;;;;;;3.67;93.44;98810.59;1634297;87;20155;-83
2022/01/19 13:19:17;;;;;;;;;;;;;;;3.71;93.37;98807.44;1622875;88;24349;-83
2022/01/19 13:21:48;;;;;;;;;;;;;;;3.77;93.29;98802.88;1622146;88;21926;-83
2022/01/19 13:24:20;;;;;;;;;;;;;;;3.83;93.17;98797.09;1625062;86;25997;-83
2022/01/19 13:26:45;;;;;;;;;;;;;;;3.88;93.09;98797.31;1624081;86;24452;-84
2022/01/19 13:29:20;;;;;;;;;;;;;;;3.88;92.94;98788.25;1622545;88;20340;-83
2022/01/19 13:31:54;;;;;;;;;;;;;;;3.89;92.77;98792.98;1620507;86;24782;-83
2022/01/19 13:34:21;;;;;;;;;;;;;;;3.91;92.63;98788.16;1608124;87;22092;-84
2022/01/19 13:36:49;;;;;;;;;;;;;;;3.94;92.50;98791.06;1624098;88;26200;-83
2022/01/19 13:39:17;;;;;;;;;;;;;;;3.96;92.39;98782.80;1620725;87;25359;-83
2022/01/19 13:41:44;;;;;;;;;;;;;;;3.95;92.24;98783.69;1618938;87;20237;-83
2022/01/19 13:44:13;;;;;;;;;;;;;;;3.96;92.11;98782.80;1618949;86;24926;-83
2022/01/19 13:46:39;;;;;;;;;;;;;;;3.96;91.96;98784.09;1624616;87;22636;-83
2022/01/19 13:49:06;;;;;;;;;;;;;;;3.92;91.78;98776.05;1622830;87;26043;-84
2022/01/19 13:51:33;;;;;;;;;;;;;;;3.94;91.58;98777.67;1624287;87;24229;-83
2022/01/19 13:54:04;;;;;;;;;;;;;;;3.98;91.38;98781.00;1591679;89;20497;-83
2022/01/19 13:56:31;;;;;;;;;;;;;;;3.99;91.20;98778.78;1617636;88;24920;-83
2022/01/19 13:59:00;;;;;;;;;;;;;;;4.02;91.05;98778.23;1625515;86;22289;-83
2022/01/19 14:01:33;;;;;;;;;;;;;;;4.04;90.92;98776.41;1620628;88;26794;-84
2022/01/19 14:04:04;;;;;;;;;;;;;;;4.07;90.87;98768.55;1592238;88;24494;-83
2022/01/19 14:06:30;;;;;;;;;;;;;;;4.08;90.78;98767.65;1621601;87;20266;-84
2022/01/19 14:09:03;;;;;;;;;;;;;;;4.11;90.68;98762.78;1619849;86;25501;-84
2022/01/19 14:11:29;;;;;;;;;;;;;;;4.10;90.55;98761.94;1634290;87;22111;-84
2022/01/19 14:13:58;;;;;;;;;;;;;;;4.10;90.42;98763.68;1619466;87;21157;-83
2022/01/19 14:16:26;;;;;;;;;;;;;;;4.09;90.25;98758.14;1619564;85;24534;-83
2022/01/19 14:19:02;;;;;;;;;;;;;;;4.12;90.11;98757.55;1623397;87;20424;-83
2022/01/19 14:21:29;;;;;;;;;;;;;;;4.09;89.92;98753.77;1616486;88;24776;-83
2022/01/19 14:24:00;;;;;;;;;;;;;;;4.09;89.72;98749.07;1636110;87;22015;-83
2022/01/19 14:26:27;;;;;;;;;;;;;;;4.09;89.55;98752.95;1635431;87;26195;-83
2022/01/19 14:29:13;;;;;;;;;;;;;;;4.06;89.33;98753.91;1636161;87;24523;-83